EHKD/DHR METAR and TAF weather

Enter ICAO airport designator
Station Type Date Time Source
EHKD METAR 2020/09/22 00:55 UTC NOAA

EHKD 220055Z AUTO 32001KT 0100 FG OVC000 09/09 Q1013 RED


Station Type Date Time Source
EHKD Decoded METAR 2020/09/22 00:55 UTC NOAA

De Kooy, Netherlands (EHKD) 52-55N 004-47E 14M
Sep 21, 2020 - 08:55 PM EDT / 2020.09.22 0055 UTC
Wind: from the NW (320 degrees) at 1 MPH (1 KT):0
Visibility: less than 1 mile:0
Sky conditions: overcast
Weather: fog
Temperature: 48 F (9 C)
Dew Point: 48 F (9 C)
Relative Humidity: 100%
Pressure (altimeter): 29.91 in. Hg (1013 hPa)
ob: EHKD 220055Z AUTO 32001KT 0100 FG OVC000 09/09 Q1013 RED
cycle: 1

Station Type Date Time Source
EHKD TAF 2020/09/22 01:09 UTC NOAA

TAF TAF EHKD 220058Z 2201/2213 VRB02KT 0150 BCFG NSC
BECMG 2206/2208 23003KT 4000 BR
BECMG 2208/2210 9999 NSW

Example: see airport list